createdAt,value
2023-02-27T00:01:22.330Z,-4.39
2023-02-27T00:03:49.101Z,-4.42
2023-02-27T00:06:29.123Z,-4.47
2023-02-27T00:08:55.866Z,-4.47
2023-02-27T00:11:22.543Z,-4.46
2023-02-27T00:13:56.656Z,-4.50
2023-02-27T00:16:23.526Z,-4.49
2023-02-27T00:18:50.274Z,-4.46
2023-02-27T00:21:27.281Z,-4.48
2023-02-27T00:23:54.264Z,-4.52
2023-02-27T00:26:20.889Z,-4.42
2023-02-27T00:28:57.121Z,-4.36
2023-02-27T00:31:23.895Z,-4.40
2023-02-27T00:33:50.725Z,-4.45
2023-02-27T00:36:17.418Z,-4.45
2023-02-27T00:38:51.707Z,-4.47
2023-02-27T00:41:18.439Z,-4.55
2023-02-27T00:43:50.711Z,-4.58
2023-02-27T00:46:20.458Z,-4.62
2023-02-27T00:48:50.193Z,-4.62
2023-02-27T00:51:20.361Z,-4.59
2023-02-27T00:53:47.060Z,-4.68
2023-02-27T00:56:19.563Z,-4.67
2023-02-27T00:58:49.444Z,-4.60
2023-02-27T01:01:18.856Z,-4.60
2023-02-27T01:03:48.667Z,-4.66
2023-02-27T01:06:21.070Z,-4.65
2023-02-27T01:08:47.970Z,-4.72
2023-02-27T01:11:23.979Z,-4.78
2023-02-27T01:13:50.710Z,-4.73
2023-02-27T01:16:17.377Z,-4.75
2023-02-27T01:18:54.572Z,-4.79
2023-02-27T01:21:22.526Z,-4.82
2023-02-27T01:23:49.448Z,-4.75
2023-02-27T01:26:23.170Z,-4.78
2023-02-27T01:28:49.879Z,-4.78
2023-02-27T01:31:20.910Z,-4.80
2023-02-27T01:33:54.045Z,-4.90
2023-02-27T01:36:20.796Z,-4.86
2023-02-27T01:38:48.260Z,-4.87
2023-02-27T01:41:24.342Z,-4.91
2023-02-27T01:43:57.165Z,-4.92
2023-02-27T01:46:24.488Z,-4.93
2023-02-27T01:49:00.396Z,-4.97
2023-02-27T01:51:38.276Z,-5.02
2023-02-27T01:54:07.390Z,-5.04
2023-02-27T01:56:34.196Z,-5.06
2023-02-27T01:59:12.354Z,-5.08
2023-02-27T02:01:39.248Z,-5.07
2023-02-27T02:04:12.829Z,-5.02
2023-02-27T02:06:42.929Z,-5.03
2023-02-27T02:09:10.822Z,-5.08
2023-02-27T02:11:37.865Z,-5.08
2023-02-27T02:14:15.313Z,-5.06
2023-02-27T02:17:01.173Z,-5.06
2023-02-27T02:19:54.631Z,-4.99
2023-02-27T02:22:47.956Z,-5.05
2023-02-27T02:25:29.766Z,-5.05
2023-02-27T02:28:18.312Z,-5.09
2023-02-27T02:30:48.135Z,-5.11
2023-02-27T02:33:17.805Z,-5.13
2023-02-27T02:36:21.978Z,-5.14
2023-02-27T02:39:07.788Z,-5.14
2023-02-27T02:41:37.281Z,-5.16
2023-02-27T02:44:16.086Z,-5.13
2023-02-27T02:46:56.039Z,-5.14
2023-02-27T02:49:57.047Z,-5.21
2023-02-27T02:52:53.711Z,-5.27
2023-02-27T02:55:51.246Z,-5.21
2023-02-27T02:58:33.334Z,-5.24
2023-02-27T03:01:17.500Z,-5.16
2023-02-27T03:03:56.647Z,-5.18
2023-02-27T03:06:30.850Z,-5.25
2023-02-27T03:09:19.526Z,-5.21
2023-02-27T03:11:48.728Z,-5.25
2023-02-27T03:15:05.137Z,-5.30
2023-02-27T03:17:45.116Z,-5.23
2023-02-27T03:20:16.627Z,-5.28
2023-02-27T03:22:48.246Z,-5.31
2023-02-27T03:25:18.286Z,-4.87
2023-02-27T03:28:10.237Z,-4.90
2023-02-27T03:30:51.186Z,-5.04
2023-02-27T03:33:29.880Z,-4.78
2023-02-27T03:39:00.330Z,-5.09
2023-02-27T03:41:38.052Z,-5.04
2023-02-27T03:44:28.540Z,-5.15
2023-02-27T03:46:55.283Z,-5.08
2023-02-27T03:49:22.286Z,-5.16
2023-02-27T03:51:56.837Z,-5.18
2023-02-27T03:54:28.454Z,-5.28
2023-02-27T03:56:59.072Z,-5.27
2023-02-27T03:59:26.658Z,-5.30
2023-02-27T04:01:55.807Z,-5.34
2023-02-27T04:04:23.302Z,-5.32
2023-02-27T04:07:40.223Z,-5.29
2023-02-27T04:10:38.527Z,-5.04
2023-02-27T04:13:22.922Z,-5.04
2023-02-27T04:15:55.338Z,-5.07
2023-02-27T04:18:56.828Z,-5.04
2023-02-27T04:21:36.959Z,-4.99
2023-02-27T04:24:23.900Z,-4.92
2023-02-27T04:26:54.895Z,-4.83
2023-02-27T04:29:37.841Z,-4.78
2023-02-27T04:32:15.631Z,-4.69
2023-02-27T04:34:47.661Z,-4.56
2023-02-27T04:37:20.199Z,-4.57
2023-02-27T04:39:54.160Z,-4.37
2023-02-27T04:42:29.680Z,-4.39
2023-02-27T04:45:00.659Z,-4.47
2023-02-27T04:47:30.459Z,-4.58
2023-02-27T04:50:09.453Z,-4.65
2023-02-27T04:52:57.669Z,-4.61
2023-02-27T04:55:33.661Z,-4.64
2023-02-27T04:58:25.396Z,-4.64
2023-02-27T05:01:03.848Z,-4.52
2023-02-27T05:03:50.298Z,-4.43
2023-02-27T05:06:28.336Z,-4.55
2023-02-27T05:09:13.984Z,-4.67
2023-02-27T05:11:50.790Z,-4.76
2023-02-27T05:14:20.732Z,-4.80
2023-02-27T05:17:09.005Z,-4.92
2023-02-27T05:19:38.982Z,-4.76
2023-02-27T05:22:09.001Z,-4.88
2023-02-27T05:24:48.100Z,-4.98
2023-02-27T05:27:31.695Z,-5.04
2023-02-27T05:30:06.077Z,-5.15
2023-02-27T05:33:03.632Z,-5.19
2023-02-27T05:35:34.547Z,-5.19
2023-02-27T05:38:05.018Z,-5.20
2023-02-27T05:40:35.648Z,-5.30
2023-02-27T05:43:31.588Z,-5.29
2023-02-27T05:46:05.600Z,-5.32
2023-02-27T05:48:55.080Z,-5.23
2023-02-27T05:51:33.585Z,-5.24
2023-02-27T05:54:03.772Z,-5.19
2023-02-27T05:56:32.668Z,-5.15
2023-02-27T05:59:24.172Z,-5.13
2023-02-27T06:01:50.844Z,-5.12
2023-02-27T06:04:17.571Z,-5.01
2023-02-27T06:06:44.698Z,-4.86
2023-02-27T06:09:12.029Z,-4.76
2023-02-27T06:11:38.893Z,-4.64
2023-02-27T06:14:05.600Z,-4.57
2023-02-27T06:16:32.344Z,-4.54
2023-02-27T06:18:59.071Z,-4.58
2023-02-27T06:21:33.069Z,-4.55
2023-02-27T06:23:59.903Z,-4.44
2023-02-27T06:26:26.970Z,-4.34
2023-02-27T06:28:53.881Z,-4.13
2023-02-27T06:31:20.604Z,-4.00
2023-02-27T06:33:49.611Z,-3.99
2023-02-27T06:36:16.388Z,-3.98
2023-02-27T06:38:43.113Z,-3.95
2023-02-27T06:41:20.184Z,-3.79
2023-02-27T06:43:46.866Z,-3.78
2023-02-27T06:46:16.375Z,-3.81
2023-02-27T06:48:52.306Z,-3.62
2023-02-27T06:51:19.093Z,-3.60
2023-02-27T06:53:45.835Z,-3.49
2023-02-27T06:56:30.147Z,-3.41
2023-02-27T06:58:58.655Z,-3.27
2023-02-27T07:01:26.464Z,-3.19
2023-02-27T07:03:55.556Z,-3.04
2023-02-27T07:07:32.986Z,-2.97
2023-02-27T07:09:09.373Z,-2.84
2023-02-27T07:11:36.245Z,-2.82
2023-02-27T07:14:10.747Z,-2.68
2023-02-27T07:16:37.610Z,-2.72
2023-02-27T07:19:04.368Z,-2.55
2023-02-27T07:21:31.173Z,-2.36
2023-02-27T07:23:57.943Z,-2.06
2023-02-27T07:26:27.829Z,-1.98
2023-02-27T07:28:55.007Z,-1.97
2023-02-27T07:31:21.854Z,-1.97
2023-02-27T07:33:48.659Z,-1.95
2023-02-27T07:36:18.358Z,-1.92
2023-02-27T07:38:45.083Z,-1.95
2023-02-27T07:41:29.858Z,-1.90
2023-02-27T07:43:59.684Z,-2.09
2023-02-27T07:46:27.792Z,-2.13
2023-02-27T07:49:03.910Z,-1.93
2023-02-27T07:51:30.835Z,-1.83
2023-02-27T07:53:58.551Z,-1.73
2023-02-27T07:56:32.960Z,-1.68
2023-02-27T07:58:59.663Z,-1.74
2023-02-27T08:01:26.505Z,-1.82
2023-02-27T08:03:53.200Z,-1.85
2023-02-27T08:06:19.977Z,-1.76
2023-02-27T08:08:50.193Z,-1.87
2023-02-27T08:11:18.458Z,-1.59
2023-02-27T08:14:00.064Z,-1.43
2023-02-27T08:16:29.076Z,-1.67
2023-02-27T08:19:06.674Z,-1.82
2023-02-27T08:21:33.490Z,-1.89
2023-02-27T08:24:00.184Z,-1.80
2023-02-27T08:26:27.172Z,-1.72
2023-02-27T08:29:03.106Z,-1.78
2023-02-27T08:31:30.047Z,-1.68
2023-02-27T08:34:04.547Z,-1.65
2023-02-27T08:36:36.462Z,-1.68
2023-02-27T08:39:03.244Z,-1.50
2023-02-27T08:41:37.254Z,-1.53
2023-02-27T08:44:04.322Z,-1.45
2023-02-27T08:46:31.198Z,-1.43
2023-02-27T08:49:00.411Z,-1.48
2023-02-27T08:51:34.752Z,-1.48
2023-02-27T08:54:01.587Z,-1.54
2023-02-27T08:56:28.875Z,-1.59
2023-02-27T08:58:56.135Z,-1.55
2023-02-27T09:01:28.809Z,-1.52
2023-02-27T09:03:55.946Z,-1.48
2023-02-27T09:06:25.214Z,-1.41
2023-02-27T09:08:57.469Z,-1.38
2023-02-27T09:11:25.358Z,-1.34
2023-02-27T09:13:52.827Z,-1.19
2023-02-27T09:16:29.779Z,-1.14
2023-02-27T09:18:56.785Z,-1.09
2023-02-27T09:21:24.798Z,-1.01
2023-02-27T09:24:17.290Z,-0.89
2023-02-27T09:26:46.876Z,-0.70
2023-02-27T09:29:13.892Z,-0.58
2023-02-27T09:31:40.660Z,-0.46
2023-02-27T09:34:16.416Z,-0.47
2023-02-27T09:36:43.164Z,-0.42
2023-02-27T09:39:10.173Z,-0.36
2023-02-27T09:41:46.406Z,-0.36
2023-02-27T09:47:29.222Z,-0.28
2023-02-27T09:50:02.522Z,-0.28
2023-02-27T09:52:31.803Z,-0.29
2023-02-27T09:54:59.183Z,-0.33
2023-02-27T09:57:41.825Z,-0.24
2023-02-27T10:00:30.521Z,-0.29
2023-02-27T10:03:05.172Z,-0.31
2023-02-27T10:06:20.188Z,-0.18
2023-02-27T10:09:04.256Z,0.05
2023-02-27T10:12:08.189Z,0.03
2023-02-27T10:14:44.093Z,0.21
2023-02-27T10:17:50.267Z,0.20
2023-02-27T10:20:51.087Z,0.23
2023-02-27T10:23:26.674Z,0.41
2023-02-27T10:25:54.012Z,0.37
2023-02-27T10:28:22.739Z,0.28
2023-02-27T10:33:52.317Z,0.50
2023-02-27T10:36:33.998Z,0.50
2023-02-27T10:39:09.187Z,0.47
2023-02-27T10:41:36.554Z,0.61
2023-02-27T10:44:04.057Z,0.65
2023-02-27T10:46:42.116Z,0.72
2023-02-27T10:49:39.065Z,0.90
2023-02-27T10:52:10.861Z,1.01
2023-02-27T10:54:38.698Z,1.08
2023-02-27T10:57:37.385Z,1.26
2023-02-27T11:00:07.165Z,1.33
2023-02-27T11:02:38.120Z,1.47
2023-02-27T11:05:21.079Z,1.43
2023-02-27T11:07:51.060Z,1.43
2023-02-27T11:10:37.473Z,1.54
2023-02-27T11:13:06.740Z,1.47
2023-02-27T11:15:38.401Z,1.47
2023-02-27T11:18:25.793Z,1.41
2023-02-27T11:20:53.215Z,1.56
2023-02-27T11:23:22.765Z,1.71
2023-02-27T11:25:50.287Z,1.73
2023-02-27T11:28:24.691Z,1.76
2023-02-27T11:31:04.082Z,1.60
2023-02-27T11:33:35.088Z,1.49
2023-02-27T11:36:03.359Z,1.72
2023-02-27T11:38:37.851Z,1.74
2023-02-27T11:41:05.830Z,1.77
2023-02-27T11:43:49.815Z,1.89
2023-02-27T11:46:46.266Z,1.90
2023-02-27T11:49:49.841Z,2.07
2023-02-27T11:52:24.255Z,2.18
2023-02-27T11:54:58.956Z,2.30
2023-02-27T11:57:28.041Z,2.25
2023-02-27T12:00:00.167Z,2.16
2023-02-27T12:02:42.694Z,2.28
2023-02-27T12:05:25.530Z,2.42
2023-02-27T12:08:05.778Z,2.61
2023-02-27T12:10:45.769Z,2.51
2023-02-27T12:13:27.086Z,2.61
2023-02-27T12:16:22.248Z,2.58
2023-02-27T12:18:59.708Z,2.60
2023-02-27T12:21:38.339Z,2.46
2023-02-27T12:24:13.066Z,2.64
2023-02-27T12:26:42.803Z,3.01
2023-02-27T12:29:38.190Z,3.01
2023-02-27T12:32:28.059Z,2.69
2023-02-27T12:35:33.973Z,2.68
2023-02-27T12:38:06.255Z,2.73
2023-02-27T12:40:48.638Z,2.86
2023-02-27T12:43:33.734Z,3.15
2023-02-27T12:46:31.379Z,3.33
2023-02-27T12:49:20.955Z,3.06
2023-02-27T12:51:53.833Z,3.10
2023-02-27T12:54:26.903Z,2.94
2023-02-27T12:57:19.115Z,3.04
2023-02-27T13:00:07.706Z,3.22
2023-02-27T13:02:43.443Z,3.56
2023-02-27T13:05:13.156Z,3.68
2023-02-27T13:08:24.780Z,3.61
2023-02-27T13:11:14.824Z,3.73
2023-02-27T13:13:49.411Z,3.73
2023-02-27T13:16:23.084Z,3.86
2023-02-27T13:19:09.961Z,3.44
2023-02-27T13:21:55.819Z,3.25
2023-02-27T13:24:43.660Z,3.23
2023-02-27T13:27:33.921Z,3.10
2023-02-27T13:30:03.710Z,2.83
2023-02-27T13:32:56.281Z,2.83
2023-02-27T13:36:00.010Z,3.06
2023-02-27T13:38:34.104Z,3.47
2023-02-27T13:41:27.839Z,3.32
2023-02-27T13:43:56.275Z,3.62
2023-02-27T13:46:26.035Z,3.34
2023-02-27T13:49:28.193Z,3.25
2023-02-27T13:51:56.776Z,3.09
2023-02-27T13:54:40.027Z,3.01
2023-02-27T13:57:18.522Z,3.00
2023-02-27T13:59:53.395Z,3.11
2023-02-27T14:02:58.381Z,3.19
2023-02-27T14:05:39.128Z,3.31
2023-02-27T14:08:15.032Z,3.39
2023-02-27T14:11:01.159Z,3.47
2023-02-27T14:13:49.995Z,3.37
2023-02-27T14:16:41.509Z,3.41
2023-02-27T14:19:22.367Z,3.62
2023-02-27T14:21:54.690Z,3.65
2023-02-27T14:24:49.665Z,3.56
2023-02-27T14:27:26.127Z,3.58
2023-02-27T14:29:56.852Z,3.41
2023-02-27T14:32:26.648Z,3.13
2023-02-27T14:34:54.354Z,3.03
2023-02-27T14:37:24.510Z,2.98
2023-02-27T14:39:53.044Z,3.02
2023-02-27T14:42:44.429Z,3.26
2023-02-27T14:45:18.902Z,3.26
2023-02-27T14:47:51.141Z,3.20
2023-02-27T14:50:25.843Z,3.38
2023-02-27T14:52:52.693Z,3.47
2023-02-27T14:55:37.648Z,3.46
2023-02-27T14:58:07.367Z,3.48
2023-02-27T15:00:51.335Z,3.48
2023-02-27T15:03:33.733Z,3.61
2023-02-27T15:06:02.561Z,3.29
2023-02-27T15:08:32.095Z,3.12
2023-02-27T15:11:03.833Z,2.92
2023-02-27T15:13:33.032Z,2.73
2023-02-27T15:16:31.824Z,2.60
2023-02-27T15:19:19.090Z,2.45
2023-02-27T15:22:05.230Z,2.44
2023-02-27T15:24:49.774Z,2.57
2023-02-27T15:27:20.489Z,2.69
2023-02-27T15:29:52.648Z,2.83
2023-02-27T15:32:27.896Z,3.06
2023-02-27T15:35:02.406Z,3.06
2023-02-27T15:37:32.418Z,3.12
2023-02-27T15:40:00.149Z,2.83
2023-02-27T15:42:37.645Z,2.74
2023-02-27T15:45:06.352Z,2.65
2023-02-27T15:47:33.843Z,2.66
2023-02-27T15:50:10.203Z,2.55
2023-02-27T15:52:46.038Z,2.54
2023-02-27T15:55:15.132Z,2.65
2023-02-27T15:57:56.558Z,2.66
2023-02-27T16:00:30.620Z,2.58
2023-02-27T16:03:01.817Z,2.66
2023-02-27T16:05:36.215Z,2.87
2023-02-27T16:08:06.896Z,2.67
2023-02-27T16:10:43.472Z,2.66
2023-02-27T16:13:39.853Z,2.69
2023-02-27T16:16:20.796Z,2.59
2023-02-27T16:18:56.337Z,2.54
2023-02-27T16:21:27.217Z,2.58
2023-02-27T16:24:28.475Z,2.59
2023-02-27T16:26:55.231Z,2.56
2023-02-27T16:29:42.115Z,2.48
2023-02-27T16:32:39.060Z,2.45
2023-02-27T16:35:27.680Z,2.38
2023-02-27T16:38:00.242Z,2.35
2023-02-27T16:40:27.836Z,2.24
2023-02-27T16:42:56.695Z,2.13
2023-02-27T16:45:27.691Z,2.07
2023-02-27T16:48:02.901Z,1.89
2023-02-27T16:50:41.471Z,1.65
2023-02-27T16:53:08.960Z,1.60
2023-02-27T16:55:43.455Z,1.49
2023-02-27T16:58:17.031Z,1.38
2023-02-27T17:00:43.862Z,1.40
2023-02-27T17:03:10.870Z,1.27
2023-02-27T17:05:37.592Z,1.23
2023-02-27T17:08:04.588Z,1.14
2023-02-27T17:10:31.308Z,1.18
2023-02-27T17:12:58.093Z,1.14
2023-02-27T17:15:29.404Z,0.99
2023-02-27T17:17:59.195Z,0.89
2023-02-27T17:20:30.170Z,0.80
2023-02-27T17:22:59.368Z,0.67
2023-02-27T17:25:28.810Z,0.63
2023-02-27T17:27:58.309Z,0.55
2023-02-27T17:30:32.285Z,0.48
2023-02-27T17:33:00.713Z,0.43
2023-02-27T17:35:30.434Z,0.22
2023-02-27T17:38:07.485Z,0.06
2023-02-27T17:40:36.514Z,-0.06
2023-02-27T17:43:03.356Z,-0.12
2023-02-27T17:45:35.478Z,-0.13
2023-02-27T17:48:02.230Z,-0.19
2023-02-27T17:50:29.243Z,-0.23
2023-02-27T17:53:10.105Z,-0.34
2023-02-27T17:55:40.420Z,-0.40
2023-02-27T17:58:07.478Z,-0.45
2023-02-27T18:00:34.416Z,-0.38
2023-02-27T18:03:01.898Z,-0.45
2023-02-27T18:05:28.812Z,-0.32
2023-02-27T18:07:58.560Z,-0.33
2023-02-27T18:10:32.825Z,-0.19
2023-02-27T18:12:59.789Z,-0.04
2023-02-27T18:15:29.659Z,-0.11
2023-02-27T18:17:59.439Z,-0.19
2023-02-27T18:20:26.192Z,-0.21
2023-02-27T18:23:00.425Z,-0.19
2023-02-27T18:25:30.362Z,-0.16
2023-02-27T18:27:57.425Z,-0.18
2023-02-27T18:30:30.901Z,-0.16
2023-02-27T18:32:58.695Z,-0.10
2023-02-27T18:35:32.834Z,-0.05
2023-02-27T18:38:00.953Z,0.01
2023-02-27T18:40:30.155Z,0.17
2023-02-27T18:42:57.491Z,0.18
2023-02-27T18:45:32.026Z,0.19
2023-02-27T18:47:58.798Z,0.14
2023-02-27T18:50:28.998Z,0.11
2023-02-27T18:53:03.431Z,0.24
2023-02-27T18:55:30.297Z,0.29
2023-02-27T18:58:00.491Z,0.36
2023-02-27T19:00:30.313Z,0.34
2023-02-27T19:03:00.171Z,0.27
2023-02-27T19:05:33.197Z,0.17
2023-02-27T19:07:59.925Z,0.08
2023-02-27T19:10:30.147Z,0.00
2023-02-27T19:13:06.107Z,-0.09
2023-02-27T19:15:33.754Z,-0.23
2023-02-27T19:18:00.507Z,-0.41
2023-02-27T19:20:34.746Z,-0.50
2023-02-27T19:23:01.801Z,-0.31
2023-02-27T19:25:28.846Z,-0.37
2023-02-27T19:28:04.362Z,-0.41
2023-02-27T19:30:31.532Z,-0.44
2023-02-27T19:32:58.602Z,-0.20
2023-02-27T19:35:35.063Z,-0.18
2023-02-27T19:38:01.829Z,-0.08
2023-02-27T19:40:28.935Z,-0.08
2023-02-27T19:43:06.103Z,-0.19
2023-02-27T19:45:32.968Z,-0.25
2023-02-27T19:47:59.885Z,-0.31
2023-02-27T19:50:28.221Z,-0.34
2023-02-27T19:52:55.040Z,-0.47
2023-02-27T19:55:24.444Z,-0.47
2023-02-27T19:57:51.269Z,-0.60
2023-02-27T20:00:18.632Z,-0.64
2023-02-27T20:02:45.412Z,-0.80
2023-02-27T20:05:12.697Z,-0.87
2023-02-27T20:07:42.599Z,-0.94
2023-02-27T20:10:10.571Z,-1.17
2023-02-27T20:12:37.348Z,-1.15
2023-02-27T20:15:09.379Z,-1.39
2023-02-27T20:17:36.170Z,-1.63
2023-02-27T20:20:04.979Z,-1.81
2023-02-27T20:22:32.898Z,-2.02
2023-02-27T20:25:00.142Z,-2.05
2023-02-27T20:27:34.830Z,-2.21
2023-02-27T20:30:01.518Z,-2.03
2023-02-27T20:32:28.591Z,-2.19
2023-02-27T20:35:04.116Z,-2.26
2023-02-27T20:37:35.369Z,-2.32
2023-02-27T20:40:04.186Z,-2.37
2023-02-27T20:42:34.105Z,-2.47
2023-02-27T20:45:00.937Z,-2.46
2023-02-27T20:47:28.190Z,-2.48
2023-02-27T20:49:54.866Z,-2.47
2023-02-27T20:52:21.522Z,-2.50
2023-02-27T20:54:50.955Z,-2.48
2023-02-27T20:57:17.596Z,-2.50
2023-02-27T20:59:44.292Z,-2.55
2023-02-27T21:02:11.273Z,-2.60
2023-02-27T21:04:43.811Z,-2.67
2023-02-27T21:07:15.362Z,-2.71
2023-02-27T21:09:42.397Z,-2.74
2023-02-27T21:12:09.495Z,-2.78
2023-02-27T21:14:38.975Z,-2.76
2023-02-27T21:17:07.873Z,-2.72
2023-02-27T21:19:42.242Z,-2.71
2023-02-27T21:22:11.809Z,-2.72
2023-02-27T21:24:38.507Z,-2.79
2023-02-27T21:27:12.819Z,-2.80
2023-02-27T21:29:42.628Z,-2.83
2023-02-27T21:32:09.379Z,-2.87
2023-02-27T21:34:39.194Z,-2.85
2023-02-27T21:37:13.554Z,-2.86
2023-02-27T21:39:40.631Z,-2.86
2023-02-27T21:42:10.369Z,-2.83
2023-02-27T21:44:44.406Z,-2.84
2023-02-27T21:47:11.221Z,-2.86
2023-02-27T21:49:40.383Z,-2.85
2023-02-27T21:52:24.780Z,-2.88
2023-02-27T21:54:59.116Z,-2.94
2023-02-27T21:57:25.922Z,-2.86
2023-02-27T21:59:52.661Z,-2.82
2023-02-27T22:02:19.432Z,-2.83
2023-02-27T22:04:46.359Z,-2.80
2023-02-27T22:07:16.078Z,-2.82
2023-02-27T22:09:42.860Z,-2.83
2023-02-27T22:12:10.622Z,-2.86
2023-02-27T22:14:49.774Z,-2.85
2023-02-27T22:17:16.834Z,-2.92
2023-02-27T22:19:44.167Z,-2.96
2023-02-27T22:22:17.036Z,-2.97
2023-02-27T22:24:44.085Z,-2.99
2023-02-27T22:27:11.224Z,-3.02
2023-02-27T22:29:43.095Z,-3.08
2023-02-27T22:32:18.950Z,-3.08
2023-02-27T22:34:45.863Z,-3.09
2023-02-27T22:37:25.043Z,-3.12
2023-02-27T22:39:51.862Z,-3.10
2023-02-27T22:42:18.594Z,-3.15
2023-02-27T22:44:54.018Z,-3.13
2023-02-27T22:47:20.831Z,-3.08
2023-02-27T22:49:50.764Z,-3.08
2023-02-27T22:52:22.598Z,-3.05
2023-02-27T22:54:50.175Z,-3.04
2023-02-27T22:57:17.170Z,-2.99
2023-02-27T22:59:44.119Z,-2.97
2023-02-27T23:02:11.990Z,-2.86
2023-02-27T23:04:42.038Z,-2.84
2023-02-27T23:07:11.872Z,-2.75
2023-02-27T23:09:42.191Z,-2.69
2023-02-27T23:12:11.489Z,-2.66
2023-02-27T23:14:40.760Z,-2.64
2023-02-27T23:17:09.934Z,-2.58
2023-02-27T23:19:45.889Z,-2.57
2023-02-27T23:22:12.630Z,-2.57
2023-02-27T23:24:40.688Z,-2.60
2023-02-27T23:27:25.936Z,-2.62
2023-02-27T23:30:01.561Z,-2.63
2023-02-27T23:32:28.460Z,-2.69
2023-02-27T23:34:55.801Z,-2.72
2023-02-27T23:37:31.675Z,-2.70
2023-02-27T23:39:58.467Z,-2.67
2023-02-27T23:42:43.820Z,-2.69
2023-02-27T23:45:11.353Z,-2.60
2023-02-27T23:47:52.002Z,-2.56
2023-02-27T23:50:45.204Z,-2.55
2023-02-27T23:53:13.375Z,-2.57
2023-02-27T23:55:40.935Z,-2.61
2023-02-27T23:58:10.174Z,-2.60
